sensor_id;sensor_type;location;lat;lon;timestamp;pressure;altitude;pressure_sealevel;temperature;humidity
69836;BME280;57132;51.972;4.450;2023-04-25T00:01:19;101121.84;;;5.17;100.00
69836;BME280;57132;51.972;4.450;2023-04-25T00:03:44;101118.63;;;5.11;100.00
69836;BME280;57132;51.972;4.450;2023-04-25T00:06:10;101118.09;;;5.03;100.00
69836;BME280;57132;51.972;4.450;2023-04-25T00:08:36;101122.00;;;4.94;100.00
69836;BME280;57132;51.972;4.450;2023-04-25T00:11:01;101127.69;;;4.85;100.00
69836;BME280;57132;51.972;4.450;2023-04-25T00:13:27;101121.88;;;4.77;100.00
69836;BME280;57132;51.972;4.450;2023-04-25T00:15:52;101123.91;;;4.70;100.00
69836;BME280;57132;51.972;4.450;2023-04-25T00:18:21;101131.25;;;4.63;100.00
69836;BME280;57132;51.972;4.450;2023-04-25T00:20:46;101128.75;;;4.59;100.00
69836;BME280;57132;51.972;4.450;2023-04-25T00:23:13;101124.59;;;4.53;100.00
69836;BME280;57132;51.972;4.450;2023-04-25T00:25:44;101128.28;;;4.49;100.00
69836;BME280;57132;51.972;4.450;2023-04-25T00:28:10;101127.63;;;4.44;100.00
69836;BME280;57132;51.972;4.450;2023-04-25T00:30:36;101127.97;;;4.35;100.00
69836;BME280;57132;51.972;4.450;2023-04-25T00:33:01;101129.97;;;4.30;100.00
69836;BME280;57132;51.972;4.450;2023-04-25T00:35:26;101124.00;;;4.25;100.00
69836;BME280;57132;51.972;4.450;2023-04-25T00:37:52;101126.13;;;4.15;100.00
69836;BME280;57132;51.972;4.450;2023-04-25T00:40:17;101126.44;;;4.07;100.00
69836;BME280;57132;51.972;4.450;2023-04-25T00:42:44;101124.66;;;4.08;100.00
69836;BME280;57132;51.972;4.450;2023-04-25T00:45:13;101128.94;;;4.12;100.00
69836;BME280;57132;51.972;4.450;2023-04-25T00:47:39;101133.94;;;4.18;100.00
69836;BME280;57132;51.972;4.450;2023-04-25T00:50:06;101137.25;;;4.23;100.00
69836;BME280;57132;51.972;4.450;2023-04-25T00:52:32;101146.75;;;4.29;100.00
69836;BME280;57132;51.972;4.450;2023-04-25T00:54:57;101148.25;;;4.34;100.00
69836;BME280;57132;51.972;4.450;2023-04-25T00:57:22;101141.94;;;4.38;100.00
69836;BME280;57132;51.972;4.450;2023-04-25T00:59:50;101141.75;;;4.43;100.00
69836;BME280;57132;51.972;4.450;2023-04-25T01:02:17;101143.34;;;4.47;100.00
69836;BME280;57132;51.972;4.450;2023-04-25T01:04:42;101149.25;;;4.54;100.00
69836;BME280;57132;51.972;4.450;2023-04-25T01:07:08;101148.94;;;4.61;100.00
69836;BME280;57132;51.972;4.450;2023-04-25T01:09:34;101148.53;;;4.71;100.00
69836;BME280;57132;51.972;4.450;2023-04-25T01:12:00;101148.97;;;4.82;100.00
69836;BME280;57132;51.972;4.450;2023-04-25T01:14:26;101147.88;;;4.87;100.00
69836;BME280;57132;51.972;4.450;2023-04-25T01:16:51;101151.09;;;4.94;100.00
69836;BME280;57132;51.972;4.450;2023-04-25T01:19:18;101149.06;;;5.01;100.00
69836;BME280;57132;51.972;4.450;2023-04-25T01:21:44;101146.34;;;5.02;100.00
69836;BME280;57132;51.972;4.450;2023-04-25T01:24:10;101149.06;;;5.01;100.00
69836;BME280;57132;51.972;4.450;2023-04-25T01:26:36;101151.78;;;4.99;100.00
69836;BME280;57132;51.972;4.450;2023-04-25T01:29:01;101155.31;;;4.98;100.00
69836;BME280;57132;51.972;4.450;2023-04-25T01:31:27;101160.78;;;4.95;100.00
69836;BME280;57132;51.972;4.450;2023-04-25T01:33:53;101163.47;;;4.93;100.00
69836;BME280;57132;51.972;4.450;2023-04-25T01:36:20;101156.34;;;4.96;100.00
69836;BME280;57132;51.972;4.450;2023-04-25T01:38:46;101159.75;;;4.98;100.00
69836;BME280;57132;51.972;4.450;2023-04-25T01:41:13;101158.81;;;4.99;100.00
69836;BME280;57132;51.972;4.450;2023-04-25T01:43:39;101155.47;;;4.95;100.00
69836;BME280;57132;51.972;4.450;2023-04-25T01:46:05;101153.72;;;4.94;100.00
69836;BME280;57132;51.972;4.450;2023-04-25T01:48:30;101162.72;;;4.90;100.00
69836;BME280;57132;51.972;4.450;2023-04-25T01:50:55;101154.13;;;4.85;100.00
69836;BME280;57132;51.972;4.450;2023-04-25T01:53:21;101165.84;;;4.79;100.00
69836;BME280;57132;51.972;4.450;2023-04-25T01:55:47;101168.91;;;4.68;100.00
69836;BME280;57132;51.972;4.450;2023-04-25T01:58:13;101169.16;;;4.62;100.00
69836;BME280;57132;51.972;4.450;2023-04-25T02:00:38;101164.06;;;4.58;100.00
69836;BME280;57132;51.972;4.450;2023-04-25T02:03:05;101164.13;;;4.56;100.00
69836;BME280;57132;51.972;4.450;2023-04-25T02:05:37;101169.47;;;4.55;100.00
69836;BME280;57132;51.972;4.450;2023-04-25T02:08:05;101170.28;;;4.57;100.00
69836;BME280;57132;51.972;4.450;2023-04-25T02:10:30;101161.53;;;4.55;100.00
69836;BME280;57132;51.972;4.450;2023-04-25T02:12:57;101164.25;;;4.53;100.00
69836;BME280;57132;51.972;4.450;2023-04-25T02:15:22;101165.03;;;4.55;100.00
69836;BME280;57132;51.972;4.450;2023-04-25T02:17:47;101172.97;;;4.55;100.00
69836;BME280;57132;51.972;4.450;2023-04-25T02:20:13;101161.50;;;4.56;100.00
69836;BME280;57132;51.972;4.450;2023-04-25T02:22:39;101169.41;;;4.56;100.00
69836;BME280;57132;51.972;4.450;2023-04-25T02:25:05;101170.31;;;4.55;100.00
69836;BME280;57132;51.972;4.450;2023-04-25T02:27:30;101173.69;;;4.59;100.00
69836;BME280;57132;51.972;4.450;2023-04-25T02:29:56;101182.81;;;4.74;100.00
69836;BME280;57132;51.972;4.450;2023-04-25T02:32:21;101175.41;;;4.82;100.00
69836;BME280;57132;51.972;4.450;2023-04-25T02:34:46;101183.09;;;4.88;100.00
69836;BME280;57132;51.972;4.450;2023-04-25T02:37:13;101188.41;;;4.88;100.00
69836;BME280;57132;51.972;4.450;2023-04-25T02:39:38;101184.81;;;4.89;100.00
69836;BME280;57132;51.972;4.450;2023-04-25T02:42:04;101177.00;;;4.86;100.00
69836;BME280;57132;51.972;4.450;2023-04-25T02:44:29;101179.00;;;4.81;100.00
69836;BME280;57132;51.972;4.450;2023-04-25T02:46:56;101183.66;;;4.74;100.00
69836;BME280;57132;51.972;4.450;2023-04-25T02:49:21;101175.06;;;4.69;100.00
69836;BME280;57132;51.972;4.450;2023-04-25T02:51:46;101174.44;;;4.62;100.00
69836;BME280;57132;51.972;4.450;2023-04-25T02:54:11;101169.41;;;4.56;100.00
69836;BME280;57132;51.972;4.450;2023-04-25T02:56:37;101173.91;;;4.54;100.00
69836;BME280;57132;51.972;4.450;2023-04-25T02:59:02;101178.22;;;4.57;100.00
69836;BME280;57132;51.972;4.450;2023-04-25T03:01:28;101179.00;;;4.59;100.00
69836;BME280;57132;51.972;4.450;2023-04-25T03:03:53;101171.06;;;4.59;100.00
69836;BME280;57132;51.972;4.450;2023-04-25T03:06:18;101176.31;;;4.60;100.00
69836;BME280;57132;51.972;4.450;2023-04-25T03:08:44;101182.19;;;4.67;100.00
69836;BME280;57132;51.972;4.450;2023-04-25T03:11:09;101187.13;;;4.76;100.00
69836;BME280;57132;51.972;4.450;2023-04-25T03:13:35;101179.53;;;4.89;100.00
69836;BME280;57132;51.972;4.450;2023-04-25T03:16:00;101185.22;;;5.00;100.00
69836;BME280;57132;51.972;4.450;2023-04-25T03:18:26;101184.06;;;5.07;100.00
69836;BME280;57132;51.972;4.450;2023-04-25T03:20:51;101175.97;;;5.10;100.00
69836;BME280;57132;51.972;4.450;2023-04-25T03:23:17;101180.41;;;5.10;100.00
69836;BME280;57132;51.972;4.450;2023-04-25T03:25:42;101188.28;;;5.11;100.00
69836;BME280;57132;51.972;4.450;2023-04-25T03:28:08;101184.72;;;5.12;100.00
69836;BME280;57132;51.972;4.450;2023-04-25T03:30:33;101182.00;;;5.14;100.00
69836;BME280;57132;51.972;4.450;2023-04-25T03:32:58;101178.47;;;5.13;100.00
69836;BME280;57132;51.972;4.450;2023-04-25T03:35:24;101174.97;;;5.13;100.00
69836;BME280;57132;51.972;4.450;2023-04-25T03:37:50;101190.09;;;5.11;100.00
69836;BME280;57132;51.972;4.450;2023-04-25T03:40:15;101188.41;;;5.08;100.00
69836;BME280;57132;51.972;4.450;2023-04-25T03:42:40;101194.69;;;5.06;100.00
69836;BME280;57132;51.972;4.450;2023-04-25T03:45:06;101188.41;;;5.08;100.00
69836;BME280;57132;51.972;4.450;2023-04-25T03:47:32;101202.31;;;5.13;100.00
69836;BME280;57132;51.972;4.450;2023-04-25T03:49:57;101198.72;;;5.14;100.00
69836;BME280;57132;51.972;4.450;2023-04-25T03:52:22;101199.22;;;5.24;100.00
69836;BME280;57132;51.972;4.450;2023-04-25T03:54:48;101194.66;;;5.28;100.00
69836;BME280;57132;51.972;4.450;2023-04-25T03:57:13;101205.09;;;5.31;100.00
69836;BME280;57132;51.972;4.450;2023-04-25T03:59:40;101208.31;;;5.37;100.00
69836;BME280;57132;51.972;4.450;2023-04-25T04:02:05;101212.69;;;5.38;100.00
69836;BME280;57132;51.972;4.450;2023-04-25T04:04:31;101207.47;;;5.37;100.00
69836;BME280;57132;51.972;4.450;2023-04-25T04:06:56;101214.69;;;5.33;100.00
69836;BME280;57132;51.972;4.450;2023-04-25T04:09:22;101218.34;;;5.31;100.00
69836;BME280;57132;51.972;4.450;2023-04-25T04:11:47;101228.00;;;5.32;100.00
69836;BME280;57132;51.972;4.450;2023-04-25T04:14:12;101221.75;;;5.33;100.00
69836;BME280;57132;51.972;4.450;2023-04-25T04:16:37;101218.13;;;5.35;100.00
69836;BME280;57132;51.972;4.450;2023-04-25T04:19:03;101219.13;;;5.33;100.00
69836;BME280;57132;51.972;4.450;2023-04-25T04:21:28;101220.09;;;5.30;100.00
69836;BME280;57132;51.972;4.450;2023-04-25T04:23:54;101222.75;;;5.30;100.00
69836;BME280;57132;51.972;4.450;2023-04-25T04:26:20;101223.63;;;5.31;100.00
69836;BME280;57132;51.972;4.450;2023-04-25T04:28:48;101219.31;;;5.28;100.00
69836;BME280;57132;51.972;4.450;2023-04-25T04:31:14;101228.97;;;5.29;100.00
69836;BME280;57132;51.972;4.450;2023-04-25T04:33:41;101216.59;;;5.30;100.00
69836;BME280;57132;51.972;4.450;2023-04-25T04:36:07;101214.88;;;5.29;100.00
69836;BME280;57132;51.972;4.450;2023-04-25T04:38:32;101221.09;;;5.28;100.00
69836;BME280;57132;51.972;4.450;2023-04-25T04:40:58;101226.53;;;5.25;100.00
69836;BME280;57132;51.972;4.450;2023-04-25T04:43:23;101224.81;;;5.24;100.00
69836;BME280;57132;51.972;4.450;2023-04-25T04:45:49;101230.22;;;5.21;100.00
69836;BME280;57132;51.972;4.450;2023-04-25T04:48:16;101231.22;;;5.18;100.00
69836;BME280;57132;51.972;4.450;2023-04-25T04:50:43;101237.34;;;5.18;100.00
69836;BME280;57132;51.972;4.450;2023-04-25T04:53:10;101235.84;;;5.13;100.00
69836;BME280;57132;51.972;4.450;2023-04-25T04:55:35;101237.72;;;5.11;100.00
69836;BME280;57132;51.972;4.450;2023-04-25T04:58:01;101240.34;;;5.11;100.00
69836;BME280;57132;51.972;4.450;2023-04-25T05:00:26;101250.06;;;5.10;100.00
69836;BME280;57132;51.972;4.450;2023-04-25T05:02:52;101252.38;;;5.18;100.00
69836;BME280;57132;51.972;4.450;2023-04-25T05:05:17;101253.72;;;5.28;100.00
69836;BME280;57132;51.972;4.450;2023-04-25T05:07:43;101258.91;;;5.31;100.00
69836;BME280;57132;51.972;4.450;2023-04-25T05:10:08;101267.69;;;5.32;100.00
69836;BME280;57132;51.972;4.450;2023-04-25T05:12:33;101268.63;;;5.31;100.00
69836;BME280;57132;51.972;4.450;2023-04-25T05:14:59;101272.06;;;5.33;100.00
69836;BME280;57132;51.972;4.450;2023-04-25T05:17:25;101271.19;;;5.32;100.00
69836;BME280;57132;51.972;4.450;2023-04-25T05:19:50;101279.06;;;5.34;100.00
69836;BME280;57132;51.972;4.450;2023-04-25T05:22:15;101291.94;;;5.43;100.00
69836;BME280;57132;51.972;4.450;2023-04-25T05:24:41;101294.50;;;5.65;100.00
69836;BME280;57132;51.972;4.450;2023-04-25T05:27:06;101294.72;;;5.81;100.00
69836;BME280;57132;51.972;4.450;2023-04-25T05:29:31;101296.03;;;5.91;100.00
69836;BME280;57132;51.972;4.450;2023-04-25T05:31:57;101299.13;;;6.02;100.00
69836;BME280;57132;51.972;4.450;2023-04-25T05:34:22;101311.56;;;6.00;100.00
69836;BME280;57132;51.972;4.450;2023-04-25T05:36:47;101320.00;;;5.88;100.00
69836;BME280;57132;51.972;4.450;2023-04-25T05:39:15;101318.84;;;5.75;100.00
69836;BME280;57132;51.972;4.450;2023-04-25T05:41:41;101319.72;;;5.74;100.00
69836;BME280;57132;51.972;4.450;2023-04-25T05:44:07;101325.91;;;5.74;100.00
69836;BME280;57132;51.972;4.450;2023-04-25T05:46:32;101324.50;;;5.86;100.00
69836;BME280;57132;51.972;4.450;2023-04-25T05:48:58;101323.59;;;6.07;100.00
69836;BME280;57132;51.972;4.450;2023-04-25T05:51:23;101321.66;;;6.31;100.00
69836;BME280;57132;51.972;4.450;2023-04-25T05:53:48;101326.69;;;6.56;100.00
69836;BME280;57132;51.972;4.450;2023-04-25T05:56:14;101331.78;;;6.80;100.00
69836;BME280;57132;51.972;4.450;2023-04-25T05:58:39;101330.09;;;6.96;100.00
69836;BME280;57132;51.972;4.450;2023-04-25T06:01:05;101335.41;;;6.96;100.00
69836;BME280;57132;51.972;4.450;2023-04-25T06:03:30;101342.81;;;6.71;100.00
69836;BME280;57132;51.972;4.450;2023-04-25T06:05:55;101343.44;;;6.57;100.00
69836;BME280;57132;51.972;4.450;2023-04-25T06:08:21;101346.09;;;6.18;100.00
69836;BME280;57132;51.972;4.450;2023-04-25T06:10:47;101346.66;;;6.05;100.00
69836;BME280;57132;51.972;4.450;2023-04-25T06:13:13;101354.66;;;6.24;100.00
69836;BME280;57132;51.972;4.450;2023-04-25T06:15:39;101356.38;;;6.25;100.00
69836;BME280;57132;51.972;4.450;2023-04-25T06:18:04;101362.69;;;6.23;100.00
69836;BME280;57132;51.972;4.450;2023-04-25T06:20:29;101364.81;;;6.14;100.00
69836;BME280;57132;51.972;4.450;2023-04-25T06:22:55;101358.59;;;5.95;100.00
69836;BME280;57132;51.972;4.450;2023-04-25T06:25:20;101366.09;;;5.84;100.00
69836;BME280;57132;51.972;4.450;2023-04-25T06:27:46;101369.75;;;5.81;100.00
69836;BME280;57132;51.972;4.450;2023-04-25T06:30:11;101374.19;;;5.81;100.00
69836;BME280;57132;51.972;4.450;2023-04-25T06:32:38;101377.63;;;5.83;100.00
69836;BME280;57132;51.972;4.450;2023-04-25T06:35:03;101374.19;;;5.81;100.00
69836;BME280;57132;51.972;4.450;2023-04-25T06:37:29;101382.78;;;5.86;100.00
69836;BME280;57132;51.972;4.450;2023-04-25T06:39:54;101380.66;;;5.96;100.00
69836;BME280;57132;51.972;4.450;2023-04-25T06:42:19;101380.13;;;6.08;100.00
69836;BME280;57132;51.972;4.450;2023-04-25T06:44:45;101389.00;;;6.27;100.00
69836;BME280;57132;51.972;4.450;2023-04-25T06:47:10;101395.50;;;6.59;100.00
69836;BME280;57132;51.972;4.450;2023-04-25T06:49:35;101389.78;;;6.87;100.00
69836;BME280;57132;51.972;4.450;2023-04-25T06:52:01;101395.97;;;7.07;100.00
69836;BME280;57132;51.972;4.450;2023-04-25T06:54:26;101393.94;;;7.12;100.00
69836;BME280;57132;51.972;4.450;2023-04-25T06:56:54;101391.13;;;7.34;100.00
69836;BME280;57132;51.972;4.450;2023-04-25T06:59:20;101401.91;;;7.48;100.00
69836;BME280;57132;51.972;4.450;2023-04-25T07:01:45;101399.66;;;7.77;100.00
69836;BME280;57132;51.972;4.450;2023-04-25T07:04:10;101399.09;;;8.05;100.00
69836;BME280;57132;51.972;4.450;2023-04-25T07:06:36;101402.88;;;8.69;100.00
69836;BME280;57132;51.972;4.450;2023-04-25T07:09:07;101401.97;;;10.39;100.00
69836;BME280;57132;51.972;4.450;2023-04-25T07:11:33;101406.13;;;13.36;94.59
69836;BME280;57132;51.972;4.450;2023-04-25T07:13:59;101404.13;;;15.13;72.19
69836;BME280;57132;51.972;4.450;2023-04-25T07:16:25;101417.53;;;15.35;60.72
69836;BME280;57132;51.972;4.450;2023-04-25T07:18:50;101410.38;;;14.91;63.55
69836;BME280;57132;51.972;4.450;2023-04-25T07:21:15;101416.53;;;16.75;61.25
69836;BME280;57132;51.972;4.450;2023-04-25T07:23:41;101427.28;;;18.81;50.24
69836;BME280;57132;51.972;4.450;2023-04-25T07:26:07;101426.19;;;20.72;44.53
69836;BME280;57132;51.972;4.450;2023-04-25T07:28:33;101433.47;;;21.40;40.54
69836;BME280;57132;51.972;4.450;2023-04-25T07:30:58;101430.94;;;20.78;39.47
69836;BME280;57132;51.972;4.450;2023-04-25T07:33:23;101430.66;;;17.98;43.70
69836;BME280;57132;51.972;4.450;2023-04-25T07:35:49;101418.34;;;15.58;50.61
69836;BME280;57132;51.972;4.450;2023-04-25T07:38:15;101420.59;;;14.06;58.20
69836;BME280;57132;51.972;4.450;2023-04-25T07:40:40;101418.94;;;12.94;63.46
69836;BME280;57132;51.972;4.450;2023-04-25T07:43:06;101420.91;;;11.62;73.02
69836;BME280;57132;51.972;4.450;2023-04-25T07:45:31;101418.75;;;10.55;74.81
69836;BME280;57132;51.972;4.450;2023-04-25T07:47:56;101418.97;;;10.81;83.39
69836;BME280;57132;51.972;4.450;2023-04-25T07:50:22;101425.53;;;14.23;65.27
69836;BME280;57132;51.972;4.450;2023-04-25T07:52:47;101418.22;;;14.36;55.02
69836;BME280;57132;51.972;4.450;2023-04-25T07:55:13;101418.06;;;15.18;51.07
69836;BME280;57132;51.972;4.450;2023-04-25T07:57:38;101428.03;;;14.13;49.20
69836;BME280;57132;51.972;4.450;2023-04-25T08:00:04;101438.53;;;13.57;54.67
69836;BME280;57132;51.972;4.450;2023-04-25T08:02:30;101439.34;;;11.93;57.62
69836;BME280;57132;51.972;4.450;2023-04-25T08:04:56;101435.63;;;10.12;66.32
69836;BME280;57132;51.972;4.450;2023-04-25T08:07:21;101446.56;;;9.14;75.12
69836;BME280;57132;51.972;4.450;2023-04-25T08:09:46;101450.56;;;8.56;77.17
69836;BME280;57132;51.972;4.450;2023-04-25T08:12:11;101459.38;;;8.22;79.74
69836;BME280;57132;51.972;4.450;2023-04-25T08:14:37;101451.94;;;8.11;84.56
69836;BME280;57132;51.972;4.450;2023-04-25T08:17:04;101470.66;;;8.95;76.79
69836;BME280;57132;51.972;4.450;2023-04-25T08:19:30;101469.38;;;9.51;72.22
69836;BME280;57132;51.972;4.450;2023-04-25T08:21:56;101474.06;;;9.30;72.08
69836;BME280;57132;51.972;4.450;2023-04-25T08:24:22;101477.81;;;9.10;75.41
69836;BME280;57132;51.972;4.450;2023-04-25T08:26:48;101482.06;;;8.81;75.81
69836;BME280;57132;51.972;4.450;2023-04-25T08:29:13;101489.59;;;10.01;74.34
69836;BME280;57132;51.972;4.450;2023-04-25T08:31:38;101494.22;;;13.53;58.68
69836;BME280;57132;51.972;4.450;2023-04-25T08:34:04;101497.63;;;15.09;49.66
69836;BME280;57132;51.972;4.450;2023-04-25T08:36:29;101500.03;;;16.44;45.10
69836;BME280;57132;51.972;4.450;2023-04-25T08:38:55;101504.53;;;17.27;40.98
69836;BME280;57132;51.972;4.450;2023-04-25T08:41:20;101510.09;;;17.05;40.29
69836;BME280;57132;51.972;4.450;2023-04-25T08:43:48;101506.97;;;16.46;43.94
69836;BME280;57132;51.972;4.450;2023-04-25T08:46:17;101514.13;;;15.72;45.15
69836;BME280;57132;51.972;4.450;2023-04-25T08:48:45;101519.28;;;14.26;49.70
69836;BME280;57132;51.972;4.450;2023-04-25T08:51:17;101513.38;;;12.20;56.67
69836;BME280;57132;51.972;4.450;2023-04-25T08:53:49;101518.16;;;11.03;65.81
69836;BME280;57132;51.972;4.450;2023-04-25T08:56:17;101536.50;;;11.10;69.41
69836;BME280;57132;51.972;4.450;2023-04-25T08:58:44;101527.53;;;11.11;66.25
69836;BME280;57132;51.972;4.450;2023-04-25T09:01:11;101529.97;;;10.71;66.01
69836;BME280;57132;51.972;4.450;2023-04-25T09:03:36;101531.84;;;10.54;65.25
69836;BME280;57132;51.972;4.450;2023-04-25T09:06:02;101539.66;;;11.02;63.65
69836;BME280;57132;51.972;4.450;2023-04-25T09:08:28;101531.63;;;12.00;60.03
69836;BME280;57132;51.972;4.450;2023-04-25T09:10:53;101536.59;;;14.22;54.34
69836;BME280;57132;51.972;4.450;2023-04-25T09:13:27;101555.53;;;14.91;46.43
69836;BME280;57132;51.972;4.450;2023-04-25T09:15:57;101559.50;;;14.63;46.64
69836;BME280;57132;51.972;4.450;2023-04-25T09:18:26;101563.06;;;13.66;47.78
69836;BME280;57132;51.972;4.450;2023-04-25T09:20:53;101562.25;;;13.01;50.64
69836;BME280;57132;51.972;4.450;2023-04-25T09:23:20;101563.97;;;13.02;49.70
69836;BME280;57132;51.972;4.450;2023-04-25T09:25:51;101564.31;;;13.11;50.50
69836;BME280;57132;51.972;4.450;2023-04-25T09:28:23;101569.09;;;14.30;47.83
69836;BME280;57132;51.972;4.450;2023-04-25T09:30:48;101568.41;;;13.91;47.02
69836;BME280;57132;51.972;4.450;2023-04-25T09:33:14;101571.94;;;14.16;46.37
69836;BME280;57132;51.972;4.450;2023-04-25T09:35:42;101578.91;;;13.45;51.75
69836;BME280;57132;51.972;4.450;2023-04-25T09:38:10;101571.44;;;14.11;51.72
69836;BME280;57132;51.972;4.450;2023-04-25T09:40:46;101582.69;;;14.16;48.06
69836;BME280;57132;51.972;4.450;2023-04-25T09:43:19;101582.59;;;12.78;47.59
69836;BME280;57132;51.972;4.450;2023-04-25T09:45:45;101580.94;;;11.96;53.54
69836;BME280;57132;51.972;4.450;2023-04-25T09:48:17;101583.94;;;13.11;50.29
69836;BME280;57132;51.972;4.450;2023-04-25T09:50:43;101588.31;;;13.63;50.69
69836;BME280;57132;51.972;4.450;2023-04-25T09:53:08;101589.66;;;13.94;50.37
69836;BME280;57132;51.972;4.450;2023-04-25T09:55:34;101593.91;;;14.58;51.35
69836;BME280;57132;51.972;4.450;2023-04-25T09:58:04;101592.72;;;13.64;51.89
69836;BME280;57132;51.972;4.450;2023-04-25T10:00:32;101589.53;;;14.44;52.53
69836;BME280;57132;51.972;4.450;2023-04-25T10:03:02;101598.50;;;15.37;47.86
69836;BME280;57132;51.972;4.450;2023-04-25T10:05:32;101599.72;;;16.01;49.14
69836;BME280;57132;51.972;4.450;2023-04-25T10:08:02;101602.03;;;15.27;45.61
69836;BME280;57132;51.972;4.450;2023-04-25T10:10:29;101611.78;;;12.83;53.06
69836;BME280;57132;51.972;4.450;2023-04-25T10:12:55;101612.25;;;11.08;57.50
69836;BME280;57132;51.972;4.450;2023-04-25T10:15:21;101612.81;;;10.39;60.06
69836;BME280;57132;51.972;4.450;2023-04-25T10:17:49;101611.56;;;10.91;60.34
69836;BME280;57132;51.972;4.450;2023-04-25T10:20:14;101613.47;;;12.17;56.81
69836;BME280;57132;51.972;4.450;2023-04-25T10:22:44;101612.09;;;12.91;55.93
69836;BME280;57132;51.972;4.450;2023-04-25T10:25:11;101615.28;;;14.59;56.66
69836;BME280;57132;51.972;4.450;2023-04-25T10:27:38;101630.09;;;14.04;53.32
69836;BME280;57132;51.972;4.450;2023-04-25T10:30:09;101621.38;;;12.19;58.80
69836;BME280;57132;51.972;4.450;2023-04-25T10:32:36;101623.66;;;10.96;65.36
69836;BME280;57132;51.972;4.450;2023-04-25T10:35:15;101622.25;;;9.81;71.82
69836;BME280;57132;51.972;4.450;2023-04-25T10:38:05;101622.81;;;9.04;75.79
69836;BME280;57132;51.972;4.450;2023-04-25T10:40:34;101629.41;;;9.15;78.68
69836;BME280;57132;51.972;4.450;2023-04-25T10:45:56;101618.66;;;11.92;68.47
69836;BME280;57132;51.972;4.450;2023-04-25T10:48:30;101628.75;;;11.01;64.13
69836;BME280;57132;51.972;4.450;2023-04-25T10:51:11;101630.13;;;12.08;63.55
69836;BME280;57132;51.972;4.450;2023-04-25T10:53:36;101624.38;;;13.34;57.04
69836;BME280;57132;51.972;4.450;2023-04-25T10:56:17;101629.75;;;13.46;53.09
69836;BME280;57132;51.972;4.450;2023-04-25T10:58:44;101628.03;;;13.71;52.90
69836;BME280;57132;51.972;4.450;2023-04-25T11:01:09;101633.81;;;13.52;54.86
69836;BME280;57132;51.972;4.450;2023-04-25T11:03:41;101635.53;;;14.52;54.14
69836;BME280;57132;51.972;4.450;2023-04-25T11:06:23;101636.38;;;13.15;53.52
69836;BME280;57132;51.972;4.450;2023-04-25T11:08:54;101633.66;;;12.63;57.26
69836;BME280;57132;51.972;4.450;2023-04-25T11:11:20;101636.22;;;12.51;58.82
69836;BME280;57132;51.972;4.450;2023-04-25T11:13:49;101636.28;;;13.29;56.76
69836;BME280;57132;51.972;4.450;2023-04-25T11:16:16;101643.44;;;13.80;56.25
69836;BME280;57132;51.972;4.450;2023-04-25T11:18:42;101648.78;;;14.66;52.47
69836;BME280;57132;51.972;4.450;2023-04-25T11:21:08;101651.03;;;13.99;50.16
69836;BME280;57132;51.972;4.450;2023-04-25T11:23:33;101648.09;;;11.63;51.47
69836;BME280;57132;51.972;4.450;2023-04-25T11:25:59;101645.97;;;11.40;56.45
69836;BME280;57132;51.972;4.450;2023-04-25T11:28:26;101643.53;;;11.65;54.59
69836;BME280;57132;51.972;4.450;2023-04-25T11:30:52;101643.03;;;11.87;56.24
69836;BME280;57132;51.972;4.450;2023-04-25T11:33:17;101655.03;;;11.23;57.53
69836;BME280;57132;51.972;4.450;2023-04-25T11:35:43;101656.97;;;11.64;55.34
69836;BME280;57132;51.972;4.450;2023-04-25T11:38:08;101656.31;;;12.44;53.76
69836;BME280;57132;51.972;4.450;2023-04-25T11:40:37;101663.28;;;12.05;55.83
69836;BME280;57132;51.972;4.450;2023-04-25T11:43:02;101654.59;;;11.45;56.84
69836;BME280;57132;51.972;4.450;2023-04-25T11:45:28;101658.81;;;10.74;57.81
69836;BME280;57132;51.972;4.450;2023-04-25T11:47:55;101657.44;;;10.67;58.62
69836;BME280;57132;51.972;4.450;2023-04-25T11:50:20;101654.84;;;10.81;58.79
69836;BME280;57132;51.972;4.450;2023-04-25T11:52:47;101656.00;;;11.36;60.12
69836;BME280;57132;51.972;4.450;2023-04-25T11:55:15;101670.13;;;11.38;58.53
69836;BME280;57132;51.972;4.450;2023-04-25T11:57:42;101663.78;;;10.80;58.25
69836;BME280;57132;51.972;4.450;2023-04-25T12:00:11;101670.69;;;10.05;58.55
69836;BME280;57132;51.972;4.450;2023-04-25T12:02:42;101673.38;;;10.99;59.71
69836;BME280;57132;51.972;4.450;2023-04-25T12:05:08;101672.97;;;12.35;58.23
69836;BME280;57132;51.972;4.450;2023-04-25T12:07:35;101679.22;;;11.78;56.77
69836;BME280;57132;51.972;4.450;2023-04-25T12:10:05;101686.28;;;10.61;61.98
69836;BME280;57132;51.972;4.450;2023-04-25T12:12:35;101681.88;;;9.96;66.44
69836;BME280;57132;51.972;4.450;2023-04-25T12:15:14;101682.41;;;9.70;68.46
69836;BME280;57132;51.972;4.450;2023-04-25T12:17:46;101680.13;;;9.29;67.73
69836;BME280;57132;51.972;4.450;2023-04-25T12:20:14;101681.16;;;9.09;69.61
69836;BME280;57132;51.972;4.450;2023-04-25T12:22:42;101688.16;;;9.11;69.45
69836;BME280;57132;51.972;4.450;2023-04-25T12:25:11;101685.72;;;9.07;69.27
69836;BME280;57132;51.972;4.450;2023-04-25T12:27:38;101693.00;;;9.03;71.46
69836;BME280;57132;51.972;4.450;2023-04-25T12:30:06;101696.44;;;9.73;71.74
69836;BME280;57132;51.972;4.450;2023-04-25T12:32:32;101688.50;;;10.05;71.14
69836;BME280;57132;51.972;4.450;2023-04-25T12:34:57;101694.16;;;9.83;68.62
69836;BME280;57132;51.972;4.450;2023-04-25T12:37:22;101700.31;;;9.68;67.19
69836;BME280;57132;51.972;4.450;2023-04-25T12:39:48;101700.66;;;9.44;67.30
69836;BME280;57132;51.972;4.450;2023-04-25T12:42:13;101697.22;;;9.25;67.79
69836;BME280;57132;51.972;4.450;2023-04-25T12:44:39;101701.28;;;9.49;65.57
69836;BME280;57132;51.972;4.450;2023-04-25T12:47:05;101709.25;;;10.00;62.30
69836;BME280;57132;51.972;4.450;2023-04-25T12:49:30;101709.94;;;10.03;64.80